Time;durP1;ratioP1;P1;durP2;ratioP2;P2;SDS_P1;SDS_P2;PMS_P1;PMS_P2;Temp;Humidity;BMP_temperature;BMP_pressure;BME280_temperature;BME280_humidity;BME280_pressure;Samples;Min_cycle;Max_cycle;Signal;HPM_P1;HPM_P2
2020/12/28 00:00:53;;;;;;;1.57;1.47;;;9.10;62.00;;;;;;4899639;29;20463;-77
2020/12/28 00:03:19;;;;;;;1.07;1.00;;;9.10;62.10;;;;;;4892603;29;20474;-77
2020/12/28 00:05:46;;;;;;;0.70;0.67;;;9.10;62.00;;;;;;4899227;29;20499;-76
2020/12/28 00:08:13;;;;;;;0.73;0.70;;;9.00;62.00;;;;;;4898996;29;20471;-77
2020/12/28 00:10:39;;;;;;;0.80;0.80;;;9.00;62.10;;;;;;4899970;29;20458;-77
2020/12/28 00:13:06;;;;;;;1.77;1.00;;;9.00;62.10;;;;;;4899351;29;20470;-76
2020/12/28 00:15:33;;;;;;;1.83;1.40;;;9.00;62.10;;;;;;4899312;29;20471;-76
2020/12/28 00:18:01;;;;;;;2.30;1.60;;;8.90;62.10;;;;;;4899546;29;20461;-76
2020/12/28 00:20:29;;;;;;;1.30;1.03;;;8.90;62.40;;;;;;4899355;29;20543;-76
2020/12/28 00:22:56;;;;;;;1.57;1.47;;;8.90;62.70;;;;;;4899403;29;20458;-76
2020/12/28 00:25:24;;;;;;;1.40;1.20;;;8.90;62.80;;;;;;4899230;29;20495;-77
2020/12/28 00:27:51;;;;;;;1.43;1.17;;;8.90;62.90;;;;;;4879072;29;20952;-77
2020/12/28 00:30:18;;;;;;;1.77;1.37;;;8.90;62.90;;;;;;4880929;29;20456;-75
2020/12/28 00:32:44;;;;;;;1.17;1.10;;;8.90;63.00;;;;;;4898734;29;20478;-77
2020/12/28 00:35:12;;;;;;;1.00;1.00;;;8.90;63.00;;;;;;4899073;29;20511;-77
2020/12/28 00:37:38;;;;;;;1.80;1.57;;;8.90;63.10;;;;;;4897163;29;20467;-76
2020/12/28 00:40:07;;;;;;;0.87;0.80;;;8.90;63.30;;;;;;4898323;29;20949;-78
2020/12/28 00:42:35;;;;;;;2.43;2.07;;;8.90;63.40;;;;;;4899035;29;20471;-77
2020/12/28 00:45:01;;;;;;;1.20;1.00;;;8.80;63.40;;;;;;4898754;29;20499;-77
2020/12/28 00:47:28;;;;;;;1.47;1.37;;;8.80;63.60;;;;;;4898899;29;20454;-77
2020/12/28 00:49:54;;;;;;;1.63;1.53;;;8.80;63.70;;;;;;4898968;29;20452;-76
2020/12/28 00:52:21;;;;;;;1.10;1.10;;;8.80;63.90;;;;;;4898855;29;22195;-77
2020/12/28 00:54:47;;;;;;;1.67;1.10;;;8.70;64.00;;;;;;4897628;29;20478;-77
2020/12/28 00:57:14;;;;;;;1.20;1.10;;;8.70;64.10;;;;;;4898878;29;20475;-77
2020/12/28 00:59:42;;;;;;;1.03;1.03;;;8.70;64.30;;;;;;4899219;29;20830;-76
2020/12/28 01:02:08;;;;;;;2.33;1.60;;;8.70;64.40;;;;;;4898650;29;20461;-77
2020/12/28 01:04:35;;;;;;;1.47;1.00;;;8.70;64.60;;;;;;4898889;29;20509;-76
2020/12/28 01:07:02;;;;;;;1.17;1.00;;;8.70;64.70;;;;;;4898446;29;20479;-76
2020/12/28 01:09:29;;;;;;;1.50;1.33;;;8.70;64.80;;;;;;4898759;29;20463;-76
2020/12/28 01:11:57;;;;;;;1.20;1.10;;;8.70;64.80;;;;;;4898484;29;20466;-77
2020/12/28 01:14:23;;;;;;;1.20;1.10;;;8.70;64.80;;;;;;4898305;29;20513;-77
2020/12/28 01:16:51;;;;;;;1.13;1.03;;;8.70;64.90;;;;;;4898878;29;20461;-77
2020/12/28 01:19:18;;;;;;;1.20;1.10;;;8.70;64.90;;;;;;4898673;29;20538;-76
2020/12/28 01:21:45;;;;;;;1.47;1.37;;;8.70;64.90;;;;;;4896565;29;20488;-79
2020/12/28 01:24:12;;;;;;;0.80;0.80;;;8.70;64.90;;;;;;4898552;29;20967;-77
2020/12/28 01:26:38;;;;;;;1.10;1.00;;;8.70;65.00;;;;;;4898279;29;20456;-77
2020/12/28 01:29:05;;;;;;;0.90;0.90;;;8.70;65.60;;;;;;4898056;29;20467;-78
2020/12/28 01:31:32;;;;;;;1.77;1.10;;;8.70;64.90;;;;;;4898324;29;20459;-76
2020/12/28 01:33:59;;;;;;;1.63;1.23;;;8.70;65.10;;;;;;4898115;29;20460;-76
2020/12/28 01:36:26;;;;;;;1.30;1.20;;;8.70;65.10;;;;;;4898447;29;20459;-77
2020/12/28 01:38:52;;;;;;;1.43;1.20;;;8.70;65.00;;;;;;4897984;29;20482;-77
2020/12/28 01:41:19;;;;;;;1.20;1.00;;;8.70;65.10;;;;;;4898232;29;20967;-76
2020/12/28 01:43:45;;;;;;;0.80;0.80;;;8.70;65.30;;;;;;4896119;29;20556;-77
2020/12/28 01:46:13;;;;;;;1.10;1.10;;;8.80;65.40;;;;;;4897609;29;20502;-76
2020/12/28 01:48:40;;;;;;;0.90;0.90;;;8.70;65.30;;;;;;4896576;29;20545;-77
2020/12/28 01:51:07;;;;;;;1.10;1.10;;;8.70;65.40;;;;;;4897156;29;20464;-77
2020/12/28 01:53:34;;;;;;;1.00;1.00;;;8.70;65.60;;;;;;4897641;29;20544;-77
2020/12/28 01:56:03;;;;;;;1.90;1.53;;;8.80;65.80;;;;;;4897678;29;20463;-77
2020/12/28 01:58:30;;;;;;;1.27;1.17;;;8.80;65.90;;;;;;4898011;29;20808;-77
2020/12/28 02:00:56;;;;;;;1.07;1.07;;;8.80;66.00;;;;;;4897821;29;20533;-77
2020/12/28 02:03:23;;;;;;;1.53;1.43;;;8.80;66.00;;;;;;4897807;29;20472;-78
2020/12/28 02:05:52;;;;;;;1.10;1.10;;;8.80;66.00;;;;;;4897941;29;20835;-77
2020/12/28 02:08:19;;;;;;;0.90;0.90;;;8.90;66.10;;;;;;4897206;29;21016;-77
2020/12/28 02:10:46;;;;;;;2.60;1.10;;;8.90;66.10;;;;;;4897902;29;20456;-76
2020/12/28 02:13:13;;;;;;;0.80;0.80;;;8.90;66.10;;;;;;4897392;29;20466;-76
2020/12/28 02:15:40;;;;;;;1.13;1.10;;;8.90;66.30;;;;;;4895863;29;20479;-76
2020/12/28 02:18:07;;;;;;;0.80;0.80;;;8.90;66.50;;;;;;4897234;29;20470;-77
2020/12/28 02:20:33;;;;;;;1.70;1.60;;;8.90;66.60;;;;;;4897680;29;20449;-77
2020/12/28 02:23:01;;;;;;;1.23;0.90;;;8.90;66.70;;;;;;4897422;29;20455;-76
2020/12/28 02:25:27;;;;;;;1.30;1.20;;;8.90;67.10;;;;;;4893985;29;20501;-78
2020/12/28 02:27:54;;;;;;;1.20;1.20;;;8.90;67.40;;;;;;4897483;29;20467;-76
2020/12/28 02:30:20;;;;;;;1.33;1.23;;;8.80;67.70;;;;;;4897285;29;20468;-76
2020/12/28 02:32:47;;;;;;;1.43;0.90;;;8.80;68.00;;;;;;4897103;29;20466;-76
2020/12/28 02:35:13;;;;;;;1.20;1.10;;;8.80;68.30;;;;;;4896746;29;20473;-77
2020/12/28 02:37:40;;;;;;;1.73;1.00;;;8.80;68.50;;;;;;4897201;29;20469;-77
2020/12/28 02:40:08;;;;;;;1.07;1.07;;;8.80;68.50;;;;;;4896107;29;20463;-77
2020/12/28 02:42:34;;;;;;;1.07;1.07;;;8.80;68.70;;;;;;4896829;29;20469;-77
2020/12/28 02:45:01;;;;;;;1.07;0.93;;;8.80;68.80;;;;;;4895510;29;20558;-77
2020/12/28 02:47:27;;;;;;;1.17;1.17;;;8.90;69.10;;;;;;4896588;29;20459;-77
2020/12/28 02:49:54;;;;;;;1.27;1.17;;;8.90;69.20;;;;;;4897115;29;20963;-76
2020/12/28 02:52:20;;;;;;;1.20;1.20;;;8.80;69.80;;;;;;4896313;29;21037;-76
2020/12/28 02:54:47;;;;;;;1.10;1.10;;;8.90;69.40;;;;;;4896781;29;20538;-77
2020/12/28 02:57:14;;;;;;;1.23;1.17;;;8.80;69.40;;;;;;4896899;29;20459;-77
2020/12/28 02:59:41;;;;;;;1.13;1.03;;;8.80;69.50;;;;;;4897024;29;20462;-77
2020/12/28 03:02:07;;;;;;;2.40;1.70;;;8.80;69.80;;;;;;4897028;29;20463;-77
2020/12/28 03:04:34;;;;;;;1.30;1.20;;;8.80;69.90;;;;;;4900118;29;20493;-78
2020/12/28 03:07:00;;;;;;;1.10;1.00;;;8.80;70.10;;;;;;4898887;29;20521;-77
2020/12/28 03:09:27;;;;;;;0.93;0.93;;;8.80;70.20;;;;;;4900418;29;20472;-77
2020/12/28 03:11:53;;;;;;;1.73;1.20;;;8.80;70.30;;;;;;4900415;29;21188;-77
2020/12/28 03:14:21;;;;;;;1.10;1.10;;;8.70;70.30;;;;;;4900354;29;20459;-77
2020/12/28 03:16:48;;;;;;;1.27;1.13;;;8.70;70.40;;;;;;4900351;29;20462;-77
2020/12/28 03:19:14;;;;;;;1.33;1.30;;;8.70;70.40;;;;;;4900635;29;20904;-76
2020/12/28 03:21:41;;;;;;;1.87;1.60;;;8.70;70.50;;;;;;4899733;29;20960;-77
2020/12/28 03:24:07;;;;;;;1.87;1.77;;;8.70;70.60;;;;;;4900466;29;20467;-77
2020/12/28 03:26:34;;;;;;;2.47;2.00;;;8.70;70.80;;;;;;4899958;29;20496;-77
2020/12/28 03:29:01;;;;;;;1.20;1.10;;;8.70;70.80;;;;;;4900524;29;20958;-77
2020/12/28 03:31:29;;;;;;;1.77;1.10;;;8.70;70.90;;;;;;4900026;29;20502;-77
2020/12/28 03:33:56;;;;;;;1.07;1.07;;;8.60;71.00;;;;;;4898309;29;20470;-77
2020/12/28 03:36:22;;;;;;;1.20;1.20;;;8.60;71.10;;;;;;4900025;29;20463;-77
2020/12/28 03:38:49;;;;;;;1.63;1.53;;;8.60;71.20;;;;;;4900016;29;20468;-77
2020/12/28 03:41:15;;;;;;;1.00;1.00;;;8.60;71.40;;;;;;4899893;29;20460;-78
2020/12/28 03:43:42;;;;;;;1.30;1.20;;;8.60;71.60;;;;;;4899927;29;20470;-78
2020/12/28 03:46:08;;;;;;;1.80;1.63;;;8.60;71.70;;;;;;4899016;29;20498;-77
2020/12/28 03:48:36;;;;;;;1.50;1.30;;;8.60;71.80;;;;;;4899596;29;20463;-77
2020/12/28 03:51:02;;;;;;;1.50;1.20;;;8.60;71.90;;;;;;4899603;29;20469;-77
2020/12/28 03:53:29;;;;;;;2.27;1.20;;;8.60;71.90;;;;;;4899266;29;20891;-77
2020/12/28 03:55:55;;;;;;;1.13;1.03;;;8.60;72.00;;;;;;4899573;29;20459;-78
2020/12/28 03:58:22;;;;;;;0.87;0.87;;;8.60;72.00;;;;;;4900171;29;20475;-77
2020/12/28 04:00:48;;;;;;;1.30;1.20;;;8.60;72.10;;;;;;4897971;29;20518;-78
2020/12/28 04:03:15;;;;;;;0.87;0.87;;;8.60;72.20;;;;;;4899769;29;20892;-79
2020/12/28 04:05:43;;;;;;;1.10;1.10;;;8.50;72.10;;;;;;4899512;29;21006;-77
2020/12/28 04:08:09;;;;;;;0.97;0.93;;;8.50;72.20;;;;;;4899092;29;20478;-78
2020/12/28 04:10:36;;;;;;;1.50;1.30;;;8.50;72.30;;;;;;4899617;29;20467;-78
2020/12/28 04:13:02;;;;;;;0.80;0.80;;;8.40;72.50;;;;;;4899414;29;20466;-77
2020/12/28 04:15:29;;;;;;;0.93;0.93;;;8.40;72.60;;;;;;4899229;29;20460;-78
2020/12/28 04:17:55;;;;;;;1.20;1.10;;;8.30;72.60;;;;;;4899388;29;20958;-78
2020/12/28 04:20:22;;;;;;;1.10;1.00;;;8.30;72.60;;;;;;4899309;29;20458;-77
2020/12/28 04:22:49;;;;;;;3.20;1.13;;;8.30;72.70;;;;;;4898998;29;20458;-78
2020/12/28 04:25:16;;;;;;;0.80;0.80;;;8.30;72.90;;;;;;4898617;29;20625;-78
2020/12/28 04:27:43;;;;;;;1.00;1.00;;;8.20;72.80;;;;;;4898056;29;20466;-77
2020/12/28 04:30:10;;;;;;;1.13;0.93;;;8.20;73.00;;;;;;4898557;29;20465;-77
2020/12/28 04:32:37;;;;;;;1.10;1.00;;;8.30;73.00;;;;;;4895801;29;20475;-78
2020/12/28 04:35:03;;;;;;;1.43;1.07;;;8.30;73.00;;;;;;4899066;29;20966;-78
2020/12/28 04:37:30;;;;;;;0.70;0.70;;;8.30;73.10;;;;;;4898937;29;20458;-78
2020/12/28 04:39:57;;;;;;;2.90;1.50;;;8.30;72.90;;;;;;4898725;29;20955;-78
2020/12/28 04:42:25;;;;;;;1.50;1.40;;;8.30;72.80;;;;;;4899289;29;20463;-77
2020/12/28 04:44:52;;;;;;;1.97;1.40;;;8.30;72.80;;;;;;4898615;29;20497;-78
2020/12/28 04:47:19;;;;;;;1.23;1.20;;;8.20;72.80;;;;;;4898860;29;20458;-77
2020/12/28 04:49:46;;;;;;;1.47;1.37;;;8.20;73.00;;;;;;4898323;29;20465;-77
2020/12/28 04:52:13;;;;;;;1.00;1.00;;;8.20;73.10;;;;;;4898611;29;20953;-75
2020/12/28 04:54:41;;;;;;;1.53;1.43;;;8.20;73.20;;;;;;4896347;29;20533;-75
2020/12/28 04:57:08;;;;;;;1.70;1.60;;;8.20;73.20;;;;;;4897637;29;20466;-77
2020/12/28 04:59:35;;;;;;;1.40;1.30;;;8.20;73.20;;;;;;4898790;29;20463;-76
2020/12/28 05:02:02;;;;;;;1.30;1.20;;;8.20;73.10;;;;;;4898594;29;20977;-75
2020/12/28 05:04:29;;;;;;;0.80;0.80;;;8.20;73.10;;;;;;4897577;29;20487;-76
2020/12/28 05:07:00;;;;;;;1.30;1.20;;;8.20;73.10;;;;;;4898267;29;20474;-77
2020/12/28 05:09:27;;;;;;;1.33;1.23;;;8.20;73.20;;;;;;4897946;29;21929;-77
2020/12/28 05:11:56;;;;;;;1.20;1.10;;;8.20;73.00;;;;;;4897571;29;20510;-77
2020/12/28 05:14:24;;;;;;;1.77;1.63;;;8.20;73.00;;;;;;4897887;29;20476;-76
2020/12/28 05:16:56;;;;;;;1.53;1.40;;;8.20;73.00;;;;;;4896571;29;20454;-76
2020/12/28 05:19:23;;;;;;;1.40;1.30;;;8.20;73.00;;;;;;4896623;29;20513;-77
2020/12/28 05:21:49;;;;;;;1.30;1.20;;;8.20;73.00;;;;;;4896356;29;20485;-76
2020/12/28 05:24:16;;;;;;;1.53;1.43;;;8.20;72.80;;;;;;4897743;29;20845;-76
2020/12/28 05:26:44;;;;;;;1.40;1.30;;;8.20;72.80;;;;;;4895874;29;20858;-76
2020/12/28 05:29:14;;;;;;;1.00;1.00;;;8.30;72.80;;;;;;4909790;29;20458;-76
2020/12/28 05:31:42;;;;;;;1.57;1.47;;;8.30;72.90;;;;;;4897845;29;20508;-77
2020/12/28 05:34:17;;;;;;;1.80;1.43;;;8.30;72.90;;;;;;4897900;29;20458;-77
2020/12/28 05:36:47;;;;;;;0.93;0.77;;;8.30;72.90;;;;;;4897748;29;20474;-76
2020/12/28 05:39:15;;;;;;;1.40;1.30;;;8.30;72.70;;;;;;4897647;29;20463;-76
2020/12/28 05:41:56;;;;;;;1.17;1.00;;;8.30;72.70;;;;;;4897868;29;20534;-76
2020/12/28 05:44:26;;;;;;;1.50;1.40;;;8.30;72.60;;;;;;4897946;29;20505;-76
2020/12/28 05:47:06;;;;;;;0.77;0.73;;;8.30;73.40;;;;;;4895867;29;20498;-77
2020/12/28 05:49:35;;;;;;;0.83;0.80;;;8.30;72.80;;;;;;4895906;29;21020;-77
2020/12/28 05:52:02;;;;;;;0.93;0.70;;;8.30;72.60;;;;;;4896966;29;20963;-77
2020/12/28 05:54:29;;;;;;;1.00;0.90;;;8.30;72.50;;;;;;4897075;29;20945;-76
2020/12/28 05:56:56;;;;;;;1.60;1.00;;;8.40;72.60;;;;;;4896295;29;20563;-77
2020/12/28 05:59:23;;;;;;;1.97;1.20;;;8.40;72.50;;;;;;4897081;29;20463;-77
2020/12/28 06:01:50;;;;;;;1.10;1.00;;;8.40;72.50;;;;;;4897245;29;20566;-76
2020/12/28 06:04:19;;;;;;;0.70;0.70;;;8.40;72.50;;;;;;4897385;29;20485;-76
2020/12/28 06:06:47;;;;;;;0.90;0.90;;;8.40;72.30;;;;;;4896802;29;20498;-77
2020/12/28 06:09:18;;;;;;;0.87;0.87;;;8.30;72.20;;;;;;4896927;29;20883;-77
2020/12/28 06:11:45;;;;;;;0.90;0.90;;;8.40;72.30;;;;;;4897291;29;20875;-77
2020/12/28 06:14:14;;;;;;;4.67;1.23;;;8.40;72.30;;;;;;4895773;29;20499;-77
2020/12/28 06:16:40;;;;;;;2.30;1.17;;;8.30;72.20;;;;;;4896888;29;20470;-78
2020/12/28 06:19:07;;;;;;;0.93;0.90;;;8.30;72.40;;;;;;4896509;29;20455;-78
2020/12/28 06:21:38;;;;;;;0.70;0.70;;;8.30;72.50;;;;;;4896461;29;20462;-78
2020/12/28 06:24:04;;;;;;;1.27;0.87;;;8.40;72.60;;;;;;4896533;29;21010;-77
2020/12/28 06:26:31;;;;;;;0.90;0.73;;;8.40;72.50;;;;;;4895678;29;20497;-78
2020/12/28 06:29:05;;;;;;;1.87;0.90;;;8.40;72.50;;;;;;4896838;29;20465;-77
2020/12/28 06:31:31;;;;;;;0.70;0.70;;;8.40;72.60;;;;;;4897218;29;20459;-77
2020/12/28 06:33:58;;;;;;;0.80;0.80;;;8.40;72.60;;;;;;4897447;29;20551;-77
2020/12/28 06:36:25;;;;;;;2.40;0.90;;;8.40;72.80;;;;;;4897639;29;20450;-76
2020/12/28 06:39:00;;;;;;;1.33;1.10;;;8.40;73.60;;;;;;4900845;29;20471;-77
2020/12/28 06:41:27;;;;;;;1.57;0.67;;;8.30;72.90;;;;;;4898936;29;20471;-77
2020/12/28 06:43:59;;;;;;;0.90;0.90;;;8.30;72.90;;;;;;4901131;29;20959;-77
2020/12/28 06:46:25;;;;;;;0.70;0.70;;;8.30;73.10;;;;;;4900618;29;21158;-77
2020/12/28 06:48:52;;;;;;;1.30;1.20;;;8.30;73.40;;;;;;4900760;29;20470;-77
2020/12/28 06:51:22;;;;;;;1.10;1.10;;;8.30;73.40;;;;;;4900725;29;21300;-76
2020/12/28 06:53:52;;;;;;;1.20;1.03;;;8.30;73.60;;;;;;4900811;29;20829;-77
2020/12/28 06:56:20;;;;;;;0.90;0.90;;;8.20;73.60;;;;;;4900835;29;20825;-77
2020/12/28 06:58:57;;;;;;;1.50;0.87;;;8.20;73.70;;;;;;4899397;29;20528;-77
2020/12/28 07:01:24;;;;;;;1.10;1.10;;;8.30;74.00;;;;;;4900481;29;20549;-77
2020/12/28 07:03:52;;;;;;;1.23;1.13;;;8.30;74.00;;;;;;4900606;29;20541;-77
2020/12/28 07:06:19;;;;;;;1.23;1.23;;;8.30;74.00;;;;;;4900337;29;20502;-77
2020/12/28 07:08:45;;;;;;;1.63;1.03;;;8.20;73.90;;;;;;4898411;29;20530;-77
2020/12/28 07:11:18;;;;;;;1.00;0.90;;;8.20;74.10;;;;;;4900312;29;20481;-76
2020/12/28 07:13:46;;;;;;;2.83;1.20;;;8.20;74.30;;;;;;4900840;29;20894;-77
2020/12/28 07:16:13;;;;;;;1.00;1.00;;;8.20;74.50;;;;;;4900159;29;21033;-76
2020/12/28 07:18:40;;;;;;;1.47;1.10;;;8.20;74.50;;;;;;4899649;29;20541;-77
2020/12/28 07:21:07;;;;;;;1.57;0.90;;;8.10;74.50;;;;;;4900228;29;20456;-77
2020/12/28 07:23:35;;;;;;;2.47;0.97;;;8.10;74.50;;;;;;4899947;29;20469;-77
2020/12/28 07:26:06;;;;;;;1.10;1.03;;;8.10;74.70;;;;;;4899833;29;20501;-76
2020/12/28 07:28:34;;;;;;;1.20;1.10;;;8.10;74.70;;;;;;4900275;29;20513;-76
2020/12/28 07:31:03;;;;;;;1.83;1.03;;;8.10;74.80;;;;;;4899924;29;20979;-77
2020/12/28 07:33:30;;;;;;;1.50;1.23;;;8.20;74.90;;;;;;4881232;29;20461;-77
2020/12/28 07:36:08;;;;;;;1.17;1.00;;;8.20;74.90;;;;;;4899798;29;20459;-78
2020/12/28 07:38:35;;;;;;;5.53;1.40;;;8.10;74.90;;;;;;4899187;29;20882;-77
2020/12/28 07:41:02;;;;;;;0.80;0.80;;;8.20;75.10;;;;;;4899802;29;20465;-77
2020/12/28 07:43:29;;;;;;;1.60;1.43;;;8.20;75.00;;;;;;4899889;29;20467;-77
2020/12/28 07:46:18;;;;;;;1.10;1.00;;;8.10;74.60;;;;;;4890970;29;20506;-78
2020/12/28 07:48:47;;;;;;;1.37;1.10;;;8.20;74.90;;;;;;4899293;29;20460;-77
2020/12/28 07:51:19;;;;;;;2.20;1.40;;;8.10;74.90;;;;;;4899708;29;20902;-77
2020/12/28 07:53:49;;;;;;;8.03;1.50;;;8.10;75.00;;;;;;4899117;29;20470;-77
2020/12/28 07:56:23;;;;;;;1.00;0.70;;;8.10;75.20;;;;;;4899790;29;20467;-78
2020/12/28 07:58:56;;;;;;;4.47;1.27;;;8.10;75.20;;;;;;4899339;29;20832;-77
2020/12/28 08:01:29;;;;;;;1.60;1.30;;;8.10;75.10;;;;;;4897558;29;20456;-77
2020/12/28 08:04:02;;;;;;;1.27;1.17;;;8.10;75.20;;;;;;4899406;29;20463;-77
2020/12/28 08:06:29;;;;;;;1.13;1.10;;;8.10;75.20;;;;;;4897708;29;20502;-77
2020/12/28 08:09:04;;;;;;;1.40;1.30;;;8.10;75.30;;;;;;4898856;29;20536;-78
2020/12/28 08:11:32;;;;;;;1.47;1.37;;;8.10;75.30;;;;;;4899404;29;20529;-77
2020/12/28 08:13:59;;;;;;;1.87;1.77;;;8.10;75.30;;;;;;4898834;29;20469;-77
2020/12/28 08:16:28;;;;;;;1.00;1.00;;;8.10;75.40;;;;;;4899180;29;20882;-77
2020/12/28 08:18:55;;;;;;;1.10;1.10;;;8.10;75.50;;;;;;4898652;29;20457;-78
2020/12/28 08:21:23;;;;;;;1.20;1.10;;;8.10;75.60;;;;;;4898692;29;20461;-77
2020/12/28 08:23:51;;;;;;;1.30;1.20;;;8.10;75.60;;;;;;4898489;29;20518;-77
2020/12/28 08:26:19;;;;;;;2.27;1.70;;;8.10;75.90;;;;;;4898563;29;20880;-77
2020/12/28 08:28:49;;;;;;;1.77;1.37;;;8.00;75.90;;;;;;4897232;29;20509;-77
2020/12/28 08:31:16;;;;;;;2.40;1.50;;;8.00;76.00;;;;;;4898483;29;20452;-77
2020/12/28 08:33:44;;;;;;;1.20;1.13;;;8.00;76.20;;;;;;4898710;29;20510;-77
2020/12/28 08:36:10;;;;;;;1.70;1.60;;;8.00;76.30;;;;;;4899020;29;20449;-77
2020/12/28 08:38:37;;;;;;;1.70;1.60;;;8.00;76.40;;;;;;4898299;29;20467;-77
2020/12/28 08:41:03;;;;;;;2.13;1.40;;;7.90;76.60;;;;;;4898815;29;20459;-77
2020/12/28 08:43:30;;;;;;;1.60;1.50;;;7.90;76.60;;;;;;4898461;29;20465;-77
2020/12/28 08:46:05;;;;;;;5.97;2.27;;;7.90;76.70;;;;;;4898440;29;20510;-77
2020/12/28 08:48:31;;;;;;;2.33;2.13;;;7.90;77.00;;;;;;4898824;29;20553;-78
2020/12/28 08:50:59;;;;;;;1.50;1.40;;;7.90;77.30;;;;;;4898122;29;20468;-77
2020/12/28 08:53:25;;;;;;;2.73;1.87;;;7.90;77.70;;;;;;4896708;29;20474;-77
2020/12/28 08:56:02;;;;;;;1.27;1.17;;;7.90;77.90;;;;;;4898666;29;20462;-77
2020/12/28 08:58:28;;;;;;;1.33;1.10;;;7.90;77.90;;;;;;4898317;29;20961;-77
2020/12/28 09:00:55;;;;;;;4.13;1.80;;;7.90;77.90;;;;;;4897191;29;20464;-77
2020/12/28 09:03:21;;;;;;;1.33;1.23;;;8.00;78.20;;;;;;4897298;29;20459;-78
2020/12/28 09:05:48;;;;;;;1.70;1.57;;;8.10;78.30;;;;;;4898401;29;20497;-77
2020/12/28 09:08:15;;;;;;;2.50;1.73;;;8.10;78.20;;;;;;4898540;29;20458;-77
2020/12/28 09:10:42;;;;;;;1.37;1.27;;;8.20;78.10;;;;;;4898218;29;20473;-77
2020/12/28 09:13:08;;;;;;;1.47;1.20;;;8.20;78.00;;;;;;4898402;29;20455;-77
2020/12/28 09:15:35;;;;;;;4.00;1.30;;;8.20;78.00;;;;;;4898633;29;20852;-78
2020/12/28 09:18:01;;;;;;;0.80;0.80;;;8.20;77.80;;;;;;4897187;29;20450;-76
2020/12/28 09:20:28;;;;;;;1.37;1.00;;;8.20;77.60;;;;;;4896661;29;20458;-76
2020/12/28 09:22:54;;;;;;;1.33;1.00;;;8.20;77.50;;;;;;4897996;29;21495;-78
2020/12/28 09:25:22;;;;;;;1.17;1.10;;;8.20;77.30;;;;;;4898155;29;20559;-78
2020/12/28 09:27:48;;;;;;;0.90;0.90;;;8.20;77.20;;;;;;4898241;29;20462;-78
2020/12/28 09:30:20;;;;;;;2.10;1.47;;;8.10;76.90;;;;;;4898262;29;20513;-77
2020/12/28 09:32:47;;;;;;;1.43;1.30;;;8.20;77.10;;;;;;4898225;29;21014;-76
2020/12/28 09:35:14;;;;;;;1.20;1.10;;;8.20;76.90;;;;;;4898096;29;20469;-76
2020/12/28 09:37:40;;;;;;;1.00;1.00;;;8.20;76.90;;;;;;4897690;29;20987;-76
2020/12/28 09:40:07;;;;;;;1.77;1.40;;;8.20;76.70;;;;;;4898087;29;20461;-77
2020/12/28 09:42:34;;;;;;;1.33;1.17;;;8.20;77.10;;;;;;4897919;29;20467;-77
2020/12/28 09:45:01;;;;;;;1.10;1.00;;;8.30;77.40;;;;;;4897697;29;20481;-77
2020/12/28 09:47:27;;;;;;;1.27;1.17;;;8.30;77.20;;;;;;4906251;29;20820;-77
2020/12/28 09:49:54;;;;;;;3.80;1.23;;;8.40;77.30;;;;;;4913256;29;20984;-78
2020/12/28 09:52:20;;;;;;;1.40;1.30;;;8.40;77.10;;;;;;4897819;29;20474;-78
2020/12/28 09:54:47;;;;;;;1.17;1.07;;;8.40;76.80;;;;;;4896782;29;20967;-78
2020/12/28 09:57:13;;;;;;;1.27;1.17;;;8.50;76.50;;;;;;4897097;29;20461;-79
2020/12/28 09:59:41;;;;;;;3.30;0.90;;;8.50;76.20;;;;;;4897573;29;20467;-79
2020/12/28 10:02:08;;;;;;;0.90;0.80;;;8.50;75.90;;;;;;4897478;29;20953;-79
2020/12/28 10:04:35;;;;;;;2.30;1.33;;;8.50;75.90;;;;;;4897326;29;20486;-78
2020/12/28 10:07:01;;;;;;;1.40;1.30;;;8.50;75.70;;;;;;4897267;29;20499;-78
2020/12/28 10:09:38;;;;;;;1.63;1.17;;;8.50;75.50;;;;;;4896356;29;20456;-78
2020/12/28 10:12:04;;;;;;;3.13;1.20;;;8.60;75.60;;;;;;4878857;29;20460;-78
2020/12/28 10:14:31;;;;;;;1.57;1.47;;;8.60;75.50;;;;;;4885932;29;20456;-77
2020/12/28 10:16:58;;;;;;;2.17;1.80;;;8.60;75.50;;;;;;4896996;29;20466;-76
2020/12/28 10:19:25;;;;;;;1.93;1.80;;;8.60;76.10;;;;;;4897577;29;20467;-77
2020/12/28 10:21:51;;;;;;;1.80;1.67;;;8.70;75.20;;;;;;4897128;29;20451;-77
2020/12/28 10:24:18;;;;;;;2.40;1.70;;;8.70;75.00;;;;;;4897414;29;20805;-76
2020/12/28 10:26:44;;;;;;;1.80;1.70;;;8.70;74.90;;;;;;4897052;29;20508;-77
2020/12/28 10:29:11;;;;;;;1.80;1.70;;;8.70;74.40;;;;;;4896655;29;20953;-76
2020/12/28 10:31:37;;;;;;;2.40;2.20;;;8.70;74.70;;;;;;4897268;29;20455;-77
2020/12/28 10:34:05;;;;;;;2.17;1.97;;;8.70;74.70;;;;;;4896751;29;20498;-77
2020/12/28 10:36:31;;;;;;;2.90;2.10;;;8.70;74.20;;;;;;4897096;29;20460;-77
2020/12/28 10:38:58;;;;;;;2.23;2.03;;;8.80;75.00;;;;;;4898177;29;20828;-77
2020/12/28 10:41:25;;;;;;;2.50;2.30;;;8.80;73.70;;;;;;4898728;29;21011;-77
2020/12/28 10:43:51;;;;;;;2.67;2.33;;;8.80;73.50;;;;;;4897164;29;21005;-77
2020/12/28 10:46:18;;;;;;;2.90;2.10;;;8.80;73.40;;;;;;4896356;29;20554;-77
2020/12/28 10:48:45;;;;;;;4.23;3.20;;;8.80;73.40;;;;;;4896604;29;20516;-77
2020/12/28 10:51:13;;;;;;;2.37;2.27;;;8.80;73.50;;;;;;4896931;29;20466;-77
2020/12/28 10:53:40;;;;;;;2.47;2.27;;;8.80;73.30;;;;;;4895411;29;20459;-78
2020/12/28 10:56:07;;;;;;;4.17;2.97;;;8.80;73.30;;;;;;4896742;29;20962;-78
2020/12/28 10:58:34;;;;;;;2.90;2.63;;;8.70;72.60;;;;;;4896994;29;20463;-78
2020/12/28 11:01:00;;;;;;;3.90;2.63;;;8.70;72.80;;;;;;4897326;29;20462;-77
2020/12/28 11:03:27;;;;;;;2.60;2.40;;;8.70;72.50;;;;;;4896994;29;20460;-77
2020/12/28 11:05:53;;;;;;;2.73;2.50;;;8.70;72.10;;;;;;4896572;29;20499;-78
2020/12/28 11:08:21;;;;;;;2.40;2.20;;;8.70;72.00;;;;;;4895081;29;20958;-78
2020/12/28 11:10:47;;;;;;;4.07;2.70;;;8.60;71.10;;;;;;4896919;29;20547;-78
2020/12/28 11:13:14;;;;;;;4.03;3.23;;;8.60;71.40;;;;;;4896908;29;20479;-78
2020/12/28 11:15:40;;;;;;;3.17;2.90;;;8.70;71.80;;;;;;4896526;29;20466;-77
2020/12/28 11:18:07;;;;;;;2.57;2.47;;;8.70;71.90;;;;;;4896966;29;20464;-78
2020/12/28 11:20:33;;;;;;;2.77;2.53;;;8.70;71.40;;;;;;4896155;29;20818;-77
2020/12/28 11:23:00;;;;;;;3.57;3.27;;;8.70;71.60;;;;;;4896885;29;20461;-77
2020/12/28 11:25:27;;;;;;;2.90;2.70;;;8.70;71.60;;;;;;4899509;29;20493;-77
2020/12/28 11:27:54;;;;;;;3.43;3.07;;;8.70;71.70;;;;;;4900295;29;20466;-77
2020/12/28 11:30:20;;;;;;;3.40;3.17;;;8.80;71.90;;;;;;4900236;29;20471;-78
2020/12/28 11:32:47;;;;;;;3.20;2.90;;;8.80;71.90;;;;;;4900278;29;20539;-80
2020/12/28 11:35:14;;;;;;;3.20;2.63;;;8.90;71.70;;;;;;4898378;29;21157;-76
2020/12/28 11:37:40;;;;;;;4.90;3.33;;;8.90;71.70;;;;;;4900258;29;20457;-76
2020/12/28 11:40:07;;;;;;;4.63;3.33;;;8.90;71.70;;;;;;4899661;29;20477;-79
2020/12/28 11:42:37;;;;;;;4.00;3.07;;;8.90;71.40;;;;;;4899945;29;20454;-79
2020/12/28 11:45:10;;;;;;;3.87;3.37;;;8.90;71.40;;;;;;4899162;29;20485;-77
2020/12/28 11:47:36;;;;;;;3.60;3.33;;;8.90;71.30;;;;;;4899548;29;20460;-78
2020/12/28 11:50:04;;;;;;;4.40;2.80;;;8.90;71.20;;;;;;4899566;29;20480;-79
2020/12/28 11:52:40;;;;;;;2.87;2.67;;;8.90;71.10;;;;;;4899230;29;20458;-77
2020/12/28 11:55:06;;;;;;;2.70;2.50;;;8.90;71.10;;;;;;4899238;29;20466;-78
2020/12/28 11:57:33;;;;;;;5.40;5.00;;;8.90;70.90;;;;;;4899776;29;20964;-77
2020/12/28 12:00:04;;;;;;;5.90;5.10;;;8.90;71.10;;;;;;4891237;29;20463;-77
2020/12/28 12:02:30;;;;;;;3.50;3.27;;;8.90;70.90;;;;;;4899082;29;20467;-78
2020/12/28 12:05:08;;;;;;;2.87;2.60;;;9.00;70.90;;;;;;4899347;29;20883;-77
2020/12/28 12:07:43;;;;;;;3.40;3.10;;;9.00;70.40;;;;;;4899497;29;20465;-78
2020/12/28 12:10:12;;;;;;;4.10;2.60;;;9.00;70.00;;;;;;4889880;29;20896;-78
2020/12/28 12:12:40;;;;;;;3.07;2.77;;;8.90;70.00;;;;;;4899586;29;20461;-77
2020/12/28 12:15:07;;;;;;;2.97;2.70;;;9.00;69.90;;;;;;4899038;29;20459;-77
2020/12/28 12:17:37;;;;;;;2.60;2.40;;;9.00;69.50;;;;;;4898523;29;20970;-77
2020/12/28 12:20:03;;;;;;;3.67;2.77;;;9.00;69.40;;;;;;4898996;29;20828;-78
2020/12/28 12:22:30;;;;;;;3.20;2.20;;;9.00;69.30;;;;;;4899238;29;20968;-76
2020/12/28 12:24:59;;;;;;;3.13;2.30;;;9.00;69.40;;;;;;4898418;29;20463;-77
2020/12/28 12:27:45;;;;;;;;;;;;;;;;;;;;;
2020/12/28 12:30:23;;;;;;;2.70;2.40;;;9.10;69.10;;;;;;4884918;29;20462;-78
2020/12/28 12:32:56;;;;;;;2.77;2.57;;;9.10;68.80;;;;;;4899021;29;20827;-77
2020/12/28 12:35:25;;;;;;;5.93;2.83;;;9.10;68.80;;;;;;4898853;29;20518;-76
2020/12/28 12:37:52;;;;;;;2.83;2.60;;;9.10;69.50;;;;;;4898579;29;20463;-77
2020/12/28 12:42:59;;;;;;;2.90;2.70;;;9.20;69.00;;;;;;4897737;29;21009;-78
2020/12/28 12:45:27;;;;;;;3.60;3.30;;;9.10;69.00;;;;;;4898394;29;20550;-76
2020/12/28 12:47:53;;;;;;;4.07;3.67;;;9.10;69.30;;;;;;4898360;29;20467;-77
2020/12/28 12:50:26;;;;;;;3.57;3.10;;;9.00;69.60;;;;;;4899014;29;20456;-78
2020/12/28 12:52:52;;;;;;;2.30;2.10;;;9.00;70.00;;;;;;4897484;29;20968;-78
2020/12/28 12:55:19;;;;;;;2.10;1.90;;;9.00;70.30;;;;;;4897551;29;20967;-79
2020/12/28 12:57:47;;;;;;;3.40;2.17;;;8.80;70.00;;;;;;4898023;29;20464;-77
2020/12/28 13:00:18;;;;;;;2.27;2.17;;;8.80;70.20;;;;;;4898529;29;20468;-77
2020/12/28 13:02:53;;;;;;;3.27;2.30;;;8.80;70.60;;;;;;4898314;29;20969;-78